Time;durP1;ratioP1;P1;durP2;ratioP2;P2;SDS_P1;SDS_P2;PMS_P1;PMS_P2;Temp;Humidity;BMP_temperature;BMP_pressure;BME280_temperature;BME280_humidity;BME280_pressure;Samples;Min_cycle;Max_cycle;Signal;HPM_P1;HPM_P2
2022/09/20 00:00:03;;;;;;;;;3.00;2.00;31.40;99.90;;;;;;4988666;28;9008;-64
2022/09/20 00:02:35;;;;;;;;;2.80;1.00;31.30;99.90;;;;;;4976882;28;8834;-64
2022/09/20 00:05:08;;;;;;;;;1.80;1.80;31.40;99.90;;;;;;4973576;28;8838;-63
2022/09/20 00:07:43;;;;;;;;;0.20;0.20;31.30;99.90;;;;;;4974018;28;8898;-63
2022/09/20 00:10:17;;;;;;;;;1.80;1.00;31.40;99.90;;;;;;4976630;28;8858;-63
2022/09/20 00:12:54;;;;;;;;;1.00;1.00;31.30;99.90;;;;;;4977902;28;8843;-63
2022/09/20 00:15:30;;;;;;;;;1.00;1.00;31.30;99.90;;;;;;4976097;28;8869;-63
2022/09/20 00:18:03;;;;;;;;;0.80;0.80;31.30;99.90;;;;;;4976050;28;8833;-65
2022/09/20 00:20:33;;;;;;;;;1.00;1.00;31.20;99.90;;;;;;4977229;28;8850;-64
2022/09/20 00:23:03;;;;;;;;;0.00;0.00;31.20;99.90;;;;;;4978077;28;9983;-64
2022/09/20 00:25:38;;;;;;;;;0.60;0.60;31.20;99.90;;;;;;4974372;28;8849;-64
2022/09/20 00:28:12;;;;;;;;;0.40;0.40;31.10;99.90;;;;;;4980897;28;9822;-63
2022/09/20 00:30:41;;;;;;;;;1.00;1.00;31.00;99.90;;;;;;4976904;28;8913;-61
2022/09/20 00:33:11;;;;;;;;;1.00;1.00;31.00;99.90;;;;;;4978792;28;8889;-64
2022/09/20 00:35:48;;;;;;;;;0.20;0.20;31.00;99.90;;;;;;4977687;28;8839;-63
2022/09/20 00:38:19;;;;;;;;;0.80;0.80;30.90;99.90;;;;;;4980880;28;8850;-65
2022/09/20 00:40:53;;;;;;;;;1.00;1.00;30.90;99.90;;;;;;4962053;28;9000;-63
2022/09/20 00:43:40;;;;;;;;;1.00;1.00;30.90;99.90;;;;;;4992506;28;8889;-64
2022/09/20 00:46:35;;;;;;;;;0.60;0.60;30.90;99.90;;;;;;4980716;28;8884;-64
2022/09/20 00:49:28;;;;;;;;;1.00;1.00;30.90;99.90;;;;;;4981598;28;8851;-64
2022/09/20 00:52:01;;;;;;;;;0.00;0.00;30.80;99.90;;;;;;4977203;28;8878;-64
2022/09/20 00:54:33;;;;;;;;;0.00;0.00;30.80;99.90;;;;;;4975264;28;8842;-65
2022/09/20 00:57:03;;;;;;;;;0.20;0.20;30.70;99.90;;;;;;4978124;28;8903;-64
2022/09/20 00:59:42;;;;;;;;;0.40;0.40;30.70;99.90;;;;;;4970047;28;9952;-62
2022/09/20 01:02:27;;;;;;;;;0.40;0.40;30.70;99.90;;;;;;4979411;28;9523;-62
2022/09/20 01:04:58;;;;;;;;;0.00;0.00;30.70;99.90;;;;;;4993666;28;8850;-62
2022/09/20 01:07:29;;;;;;;;;0.00;0.00;30.60;99.90;;;;;;4974921;28;8882;-62
2022/09/20 01:10:01;;;;;;;;;0.00;0.00;30.60;99.90;;;;;;4976867;28;8969;-63
2022/09/20 01:12:34;;;;;;;;;0.00;0.00;30.60;99.90;;;;;;4979049;28;8847;-63
2022/09/20 01:15:08;;;;;;;;;0.60;0.60;30.60;99.90;;;;;;4974370;28;8869;-63
2022/09/20 01:17:44;;;;;;;;;0.20;0.20;30.50;99.90;;;;;;4975038;28;9637;-61
2022/09/20 01:20:21;;;;;;;;;0.60;0.60;30.50;99.90;;;;;;4977147;28;8839;-61
2022/09/20 01:23:22;;;;;;;;;1.00;1.00;30.40;99.90;;;;;;4993075;28;8867;-62
2022/09/20 01:26:11;;;;;;;;;1.20;1.00;30.30;99.90;;;;;;4973227;28;8886;-62
2022/09/20 01:28:44;;;;;;;;;1.00;1.00;30.40;99.90;;;;;;4967448;28;8890;-61
2022/09/20 01:31:28;;;;;;;;;1.00;1.00;30.40;99.90;;;;;;4970735;28;8881;-60
2022/09/20 01:34:11;;;;;;;;;0.40;0.00;30.30;99.90;;;;;;4983010;28;9549;-59
2022/09/20 01:37:18;;;;;;;;;1.00;1.00;30.30;99.90;;;;;;4978099;28;8882;-61
2022/09/20 01:39:58;;;;;;;;;1.80;1.80;30.30;99.90;;;;;;4973808;28;9004;-64
2022/09/20 01:42:38;;;;;;;;;3.00;2.00;30.30;99.90;;;;;;4973608;28;8866;-64
2022/09/20 01:45:28;;;;;;;;;0.80;0.80;30.20;99.90;;;;;;4971838;28;8878;-61
2022/09/20 01:48:20;;;;;;;;;1.60;1.60;30.20;99.90;;;;;;4973661;28;8886;-61
2022/09/20 01:51:29;;;;;;;;;1.00;1.00;30.10;99.90;;;;;;4976467;28;8847;-63
2022/09/20 01:54:19;;;;;;;;;1.20;1.20;30.10;99.90;;;;;;4974893;28;8883;-60
2022/09/20 01:57:01;;;;;;;;;1.00;1.00;30.10;99.90;;;;;;4972865;28;8921;-59
2022/09/20 01:59:46;;;;;;;;;2.00;2.00;30.00;99.90;;;;;;4984002;28;9048;-65
2022/09/20 02:02:52;;;;;;;;;1.40;1.40;30.00;99.90;;;;;;4971357;28;9678;-63
2022/09/20 02:05:28;;;;;;;;;1.40;1.40;30.00;99.90;;;;;;4979218;28;8866;-60
2022/09/20 02:08:42;;;;;;;;;2.00;2.00;30.00;99.90;;;;;;4973150;28;8917;-62
2022/09/20 02:11:31;;;;;;;;;2.60;1.60;30.00;99.90;;;;;;4978003;28;9942;-63
2022/09/20 02:14:21;;;;;;;;;1.00;1.00;30.00;99.90;;;;;;4978515;28;8847;-61
2022/09/20 02:17:14;;;;;;;;;1.20;1.20;29.90;99.90;;;;;;4986324;28;8885;-61
2022/09/20 02:19:52;;;;;;;;;2.00;2.00;29.80;99.90;;;;;;4977274;28;8848;-63
2022/09/20 02:22:44;;;;;;;;;1.80;1.80;29.80;99.90;;;;;;4974761;28;8918;-65
2022/09/20 02:25:42;;;;;;;;;1.00;1.00;29.80;99.90;;;;;;4980366;28;8853;-64
2022/09/20 02:28:25;;;;;;;;;1.00;1.00;29.70;99.90;;;;;;4978074;28;8867;-64
2022/09/20 02:31:17;;;;;;;;;1.40;1.40;29.70;99.90;;;;;;4969794;28;9616;-62
2022/09/20 02:34:11;;;;;;;;;2.20;2.20;29.70;99.90;;;;;;4975809;28;8862;-63
2022/09/20 02:37:06;;;;;;;;;1.00;1.00;29.70;99.90;;;;;;4974005;28;8893;-63
2022/09/20 02:39:57;;;;;;;;;0.40;0.40;29.60;99.90;;;;;;4987700;28;8869;-64
2022/09/20 02:42:43;;;;;;;;;1.20;1.20;29.60;99.90;;;;;;4989674;28;9009;-63
2022/09/20 02:45:22;;;;;;;;;1.00;1.00;29.50;99.90;;;;;;4978355;28;8872;-66
2022/09/20 02:48:00;;;;;;;;;2.00;1.00;29.50;99.90;;;;;;4972672;28;8866;-65
2022/09/20 02:51:03;;;;;;;;;1.00;1.00;29.50;99.90;;;;;;4976535;28;8855;-64
2022/09/20 02:54:12;;;;;;;;;0.00;0.00;29.40;99.90;;;;;;4972903;28;8861;-64
2022/09/20 02:57:04;;;;;;;;;1.00;1.00;29.50;99.90;;;;;;4977837;28;8903;-66
2022/09/20 03:00:11;;;;;;;;;1.00;1.00;29.50;99.90;;;;;;4977320;28;8858;-65
2022/09/20 03:03:00;;;;;;;;;1.20;1.00;29.40;99.90;;;;;;4988229;28;8897;-62
2022/09/20 03:05:54;;;;;;;;;1.00;1.00;29.30;99.90;;;;;;4974953;28;8851;-64
2022/09/20 03:08:36;;;;;;;;;0.20;0.20;29.30;99.90;;;;;;4974636;28;8851;-63
2022/09/20 03:11:11;;;;;;;;;0.60;0.60;29.20;99.90;;;;;;4975871;28;9519;-64
2022/09/20 03:14:02;;;;;;;;;0.00;0.00;29.20;99.90;;;;;;4966136;28;8897;-63
2022/09/20 03:17:10;;;;;;;;;0.00;0.00;29.10;99.90;;;;;;4977355;28;8953;-62
2022/09/20 03:20:03;;;;;;;;;1.00;1.00;29.00;99.90;;;;;;4979893;28;8851;-64
2022/09/20 03:22:46;;;;;;;;;0.00;0.00;28.90;99.90;;;;;;4980249;28;8873;-64
2022/09/20 03:25:29;;;;;;;;;0.00;0.00;28.90;99.90;;;;;;4989883;28;8921;-63
2022/09/20 03:28:03;;;;;;;;;1.00;1.00;28.80;99.90;;;;;;4974927;28;8899;-62
2022/09/20 03:31:09;;;;;;;;;0.00;0.00;28.80;99.90;;;;;;4974662;28;8893;-61
2022/09/20 03:34:03;;;;;;;;;0.00;0.00;28.70;99.90;;;;;;4975270;28;8873;-63
2022/09/20 03:36:52;;;;;;;;;0.00;0.00;28.70;99.90;;;;;;4982540;28;8837;-65
2022/09/20 03:39:40;;;;;;;;;1.00;1.00;28.60;99.90;;;;;;4975195;28;8862;-64
2022/09/20 03:42:30;;;;;;;;;0.80;0.80;28.60;99.90;;;;;;4987807;28;8907;-66
2022/09/20 03:45:07;;;;;;;;;1.00;1.00;28.60;99.90;;;;;;4976741;28;8867;-63
2022/09/20 03:48:02;;;;;;;;;0.00;0.00;28.60;99.90;;;;;;4976648;28;8872;-65
2022/09/20 03:50:35;;;;;;;;;0.00;0.00;28.50;99.90;;;;;;4977195;28;8854;-66
2022/09/20 03:53:34;;;;;;;;;0.80;0.80;28.50;99.90;;;;;;4979619;28;8861;-65
2022/09/20 03:56:17;;;;;;;;;0.00;0.00;28.50;99.90;;;;;;4976693;28;9048;-65
2022/09/20 03:59:19;;;;;;;;;1.00;1.00;28.50;99.90;;;;;;4974699;28;8885;-64
2022/09/20 04:02:27;;;;;;;;;0.00;0.00;28.40;99.90;;;;;;4975508;28;9612;-61
2022/09/20 04:05:25;;;;;;;;;2.00;1.00;28.30;99.90;;;;;;4978580;28;8852;-64
2022/09/20 04:08:26;;;;;;;;;0.00;0.00;28.40;99.90;;;;;;4974480;28;8922;-65
2022/09/20 04:11:16;;;;;;;;;0.00;0.00;28.30;99.90;;;;;;4973394;28;8869;-65
2022/09/20 04:14:11;;;;;;;;;0.60;0.00;28.30;99.90;;;;;;4979075;28;8870;-64
2022/09/20 04:16:52;;;;;;;;;1.00;1.00;28.30;99.90;;;;;;4974104;28;8943;-63
2022/09/20 04:20:03;;;;;;;;;0.00;0.00;28.20;99.90;;;;;;4972293;28;8853;-64
2022/09/20 04:22:39;;;;;;;;;0.00;0.00;28.20;99.90;;;;;;4971139;28;8865;-63
2022/09/20 04:25:35;;;;;;;;;1.00;1.00;28.20;99.90;;;;;;4981893;28;8889;-63
2022/09/20 04:28:25;;;;;;;;;0.60;0.60;28.20;99.90;;;;;;4971721;28;8870;-60
2022/09/20 04:31:02;;;;;;;;;0.60;0.60;28.10;99.90;;;;;;4975158;28;8870;-61
2022/09/20 04:33:43;;;;;;;;;0.00;0.00;28.10;99.90;;;;;;4977156;28;8866;-62
2022/09/20 04:36:48;;;;;;;;;0.20;0.20;28.00;99.90;;;;;;4976549;28;8866;-63
2022/09/20 04:39:48;;;;;;;;;0.60;0.60;28.00;99.90;;;;;;4971321;28;8853;-59
2022/09/20 04:43:03;;;;;;;;;1.00;1.00;28.00;99.90;;;;;;4972201;28;9010;-60
2022/09/20 04:46:11;;;;;;;;;0.20;0.20;27.90;99.90;;;;;;4986859;28;8866;-60
2022/09/20 04:49:22;;;;;;;;;0.80;0.80;27.90;99.90;;;;;;4972672;28;8877;-62
2022/09/20 04:52:13;;;;;;;;;0.00;0.00;27.90;99.90;;;;;;4975623;28;8850;-64
2022/09/20 04:54:59;;;;;;;;;0.20;0.20;27.90;99.90;;;;;;4974109;28;8946;-63
2022/09/20 04:58:03;;;;;;;;;1.00;1.00;27.90;99.90;;;;;;4963113;28;8874;-63
2022/09/20 05:00:46;;;;;;;;;1.20;1.20;27.80;99.90;;;;;;4985069;28;8869;-63
2022/09/20 05:03:57;;;;;;;;;0.80;0.80;27.80;99.90;;;;;;4978293;28;8858;-63
2022/09/20 05:06:45;;;;;;;;;0.00;0.00;27.80;99.90;;;;;;4979878;28;8850;-62
2022/09/20 05:09:50;;;;;;;;;1.00;1.00;27.70;99.90;;;;;;4975484;28;8990;-61
2022/09/20 05:13:09;;;;;;;;;0.20;0.20;27.70;99.90;;;;;;4991758;28;8858;-60
2022/09/20 05:16:04;;;;;;;;;1.00;1.00;27.60;99.90;;;;;;4974531;28;8859;-62
2022/09/20 05:18:40;;;;;;;;;0.60;0.60;27.60;99.90;;;;;;4980959;28;10050;-62
2022/09/20 05:21:23;;;;;;;;;1.00;1.00;27.60;99.90;;;;;;4970704;28;8859;-63
2022/09/20 05:24:10;;;;;;;;;0.20;0.20;27.60;99.90;;;;;;4973861;28;8866;-61
2022/09/20 05:27:06;;;;;;;;;0.60;0.60;27.60;99.90;;;;;;4962336;28;8901;-60
2022/09/20 05:29:45;;;;;;;;;1.40;1.00;27.60;99.90;;;;;;4977835;28;9616;-62
2022/09/20 05:32:29;;;;;;;;;2.00;0.20;27.60;99.90;;;;;;4978515;28;8854;-62
2022/09/20 05:35:32;;;;;;;;;2.00;0.00;27.50;99.90;;;;;;4977934;28;9011;-59
2022/09/20 05:38:13;;;;;;;;;0.20;0.20;27.60;99.90;;;;;;4972010;28;8842;-62
2022/09/20 05:40:58;;;;;;;;;0.40;0.40;27.50;99.90;;;;;;4973932;28;8874;-62
2022/09/20 05:43:36;;;;;;;;;0.20;0.20;27.50;99.90;;;;;;4976342;28;8909;-63
2022/09/20 05:46:43;;;;;;;;;0.00;0.00;27.40;99.90;;;;;;4978115;28;10025;-63
2022/09/20 05:49:36;;;;;;;;;0.20;0.20;27.40;99.90;;;;;;4978554;28;8866;-63
2022/09/20 05:52:44;;;;;;;;;2.00;2.00;27.30;99.90;;;;;;4978917;28;8859;-63
2022/09/20 05:55:21;;;;;;;;;0.00;0.00;27.30;99.90;;;;;;4971039;28;8870;-61
2022/09/20 05:57:55;;;;;;;;;0.00;0.00;27.30;99.90;;;;;;4975333;28;9005;-60
2022/09/20 06:00:34;;;;;;;;;0.80;0.80;27.40;99.90;;;;;;4981122;28;8865;-61
2022/09/20 06:03:29;;;;;;;;;0.00;0.00;27.30;99.90;;;;;;4973477;28;8838;-62
2022/09/20 06:06:29;;;;;;;;;0.40;0.40;27.30;99.90;;;;;;4976487;28;8877;-62
2022/09/20 06:09:19;;;;;;;;;1.00;1.00;27.30;99.90;;;;;;4974602;28;8905;-62
2022/09/20 06:12:02;;;;;;;;;1.00;1.00;27.30;99.90;;;;;;4991796;28;8884;-63
2022/09/20 06:14:52;;;;;;;;;0.20;0.20;27.30;99.90;;;;;;4975334;28;8901;-63
2022/09/20 06:17:38;;;;;;;;;0.00;0.00;27.20;99.90;;;;;;4975333;28;9572;-63
2022/09/20 06:20:57;;;;;;;;;0.00;0.00;27.20;99.90;;;;;;4987021;28;9619;-63
2022/09/20 06:23:30;;;;;;;;;0.80;0.80;27.10;99.90;;;;;;4973987;28;8834;-64
2022/09/20 06:26:35;;;;;;;;;0.00;0.00;27.10;99.90;;;;;;4991467;28;9001;-63
2022/09/20 06:29:11;;;;;;;;;1.00;1.00;27.10;99.90;;;;;;4968471;28;8915;-63
2022/09/20 06:31:41;;;;;;;;;0.20;0.20;27.00;99.90;;;;;;4994276;28;8892;-63
2022/09/20 06:34:15;;;;;;;;;0.00;0.00;27.00;99.90;;;;;;4971689;28;10250;-62
2022/09/20 06:42:59;;;;;;;;;1.00;1.00;27.00;99.90;;;;;;4970517;28;9609;-63
2022/09/20 06:45:30;;;;;;;;;1.00;1.00;27.00;99.90;;;;;;4974725;28;8900;-63
2022/09/20 06:48:04;;;;;;;;;0.20;0.20;26.80;99.90;;;;;;4970576;28;8858;-62
2022/09/20 06:50:36;;;;;;;;;1.00;1.00;26.90;99.90;;;;;;4973207;28;8842;-62
2022/09/20 06:53:16;;;;;;;;;0.20;0.20;26.80;99.90;;;;;;4982285;28;8859;-62
2022/09/20 06:55:47;;;;;;;;;0.60;0.60;26.80;99.90;;;;;;4989319;28;8888;-63
2022/09/20 06:58:18;;;;;;;;;0.00;0.00;26.80;99.90;;;;;;4958543;28;9035;-63
2022/09/20 07:00:50;;;;;;;;;1.00;1.00;26.80;99.90;;;;;;4977634;28;9592;-63
2022/09/20 07:03:22;;;;;;;;;0.00;0.00;26.80;99.90;;;;;;4975345;28;8877;-61
2022/09/20 07:05:53;;;;;;;;;0.00;0.00;26.70;99.90;;;;;;4978588;28;8863;-61
2022/09/20 07:08:27;;;;;;;;;0.00;0.00;26.80;99.90;;;;;;4979331;28;8846;-61
2022/09/20 07:11:22;;;;;;;;;0.00;0.00;26.70;99.90;;;;;;4979351;28;8886;-61
2022/09/20 07:13:58;;;;;;;;;0.80;0.80;26.60;99.90;;;;;;4981981;28;8839;-62
2022/09/20 07:16:29;;;;;;;;;0.80;0.80;26.70;99.90;;;;;;4978757;28;8870;-61
2022/09/20 07:18:59;;;;;;;;;0.80;0.80;26.70;99.90;;;;;;4990740;28;8909;-61
2022/09/20 07:21:30;;;;;;;;;1.00;1.00;26.60;99.90;;;;;;4974533;28;8875;-61
2022/09/20 07:24:01;;;;;;;;;0.00;0.00;26.60;99.90;;;;;;4982241;28;8851;-63
2022/09/20 07:26:33;;;;;;;;;0.80;0.80;26.50;99.90;;;;;;4974379;28;8872;-63
2022/09/20 07:29:07;;;;;;;;;1.20;0.00;26.50;99.90;;;;;;4977826;28;8873;-63
2022/09/20 07:31:39;;;;;;;;;0.00;0.00;26.50;99.90;;;;;;4980099;28;9665;-63
2022/09/20 07:34:11;;;;;;;;;1.00;1.00;26.50;99.90;;;;;;4976965;28;8840;-62
2022/09/20 07:36:42;;;;;;;;;0.20;0.20;26.50;99.90;;;;;;4981709;28;8858;-62
2022/09/20 07:39:17;;;;;;;;;0.00;0.00;26.50;99.90;;;;;;4975174;28;8828;-62
2022/09/20 07:41:50;;;;;;;;;0.00;0.00;26.50;99.90;;;;;;4974380;28;8861;-62
2022/09/20 07:44:23;;;;;;;;;1.00;1.00;26.40;99.90;;;;;;4977578;28;8869;-61
2022/09/20 07:46:56;;;;;;;;;0.00;0.00;26.50;99.90;;;;;;4975580;28;9187;-62
2022/09/20 07:49:30;;;;;;;;;0.80;0.80;26.40;99.90;;;;;;4979524;28;8858;-61
2022/09/20 07:52:00;;;;;;;;;1.60;1.60;26.40;99.90;;;;;;4979805;28;8847;-62
2022/09/20 07:54:34;;;;;;;;;0.00;0.00;26.40;99.90;;;;;;4979319;28;8866;-61
2022/09/20 07:57:05;;;;;;;;;0.00;0.00;26.40;99.90;;;;;;4971359;28;8854;-61
2022/09/20 07:59:37;;;;;;;;;0.00;0.00;26.40;99.90;;;;;;4982072;28;9850;-63
2022/09/20 08:02:13;;;;;;;;;1.00;1.00;26.30;99.90;;;;;;4974511;28;8858;-63
2022/09/20 08:04:43;;;;;;;;;1.00;1.00;26.20;99.90;;;;;;4975640;28;8834;-62
2022/09/20 08:07:16;;;;;;;;;1.00;1.00;26.20;99.90;;;;;;4980732;28;8890;-64
2022/09/20 08:09:46;;;;;;;;;0.00;0.00;26.30;99.90;;;;;;4975685;28;8892;-62
2022/09/20 08:12:18;;;;;;;;;1.00;1.00;26.20;99.90;;;;;;4979887;28;8876;-63
2022/09/20 08:15:15;;;;;;;;;1.00;1.00;26.20;99.90;;;;;;4972404;28;8873;-63
2022/09/20 08:17:49;;;;;;;;;1.00;1.00;26.20;99.90;;;;;;4968082;28;9636;-62
2022/09/20 08:20:21;;;;;;;;;1.00;1.00;26.20;99.90;;;;;;4969192;28;8859;-62
2022/09/20 08:22:54;;;;;;;;;0.60;0.60;26.10;99.90;;;;;;4969572;28;8904;-61
2022/09/20 08:25:43;;;;;;;;;0.20;0.20;26.10;99.90;;;;;;4970324;28;8877;-60
2022/09/20 08:28:15;;;;;;;;;0.00;0.00;26.20;99.90;;;;;;4966595;28;8905;-63
2022/09/20 08:30:45;;;;;;;;;0.00;0.00;26.10;99.90;;;;;;4972783;28;8869;-64
2022/09/20 08:33:19;;;;;;;;;0.40;0.40;26.10;99.90;;;;;;4965602;28;8877;-63
2022/09/20 08:35:53;;;;;;;;;1.00;1.00;26.10;99.90;;;;;;4975594;28;8860;-64
2022/09/20 08:38:28;;;;;;;;;0.00;0.00;26.10;99.90;;;;;;4978819;28;8866;-64
2022/09/20 08:41:38;;;;;;;;;0.20;0.20;25.90;99.90;;;;;;4978036;28;8873;-64
2022/09/20 08:44:31;;;;;;;;;1.00;1.00;25.90;99.90;;;;;;4979520;28;8852;-63
2022/09/20 08:47:47;;;;;;;;;0.40;0.40;25.90;99.90;;;;;;4977599;28;8842;-64
2022/09/20 08:50:17;;;;;;;;;0.40;0.40;25.90;99.90;;;;;;4990433;28;9636;-62
2022/09/20 08:52:50;;;;;;;;;1.00;1.00;25.90;99.90;;;;;;4978606;28;8858;-64
2022/09/20 08:55:34;;;;;;;;;0.80;0.80;25.90;99.90;;;;;;4978599;28;8842;-64
2022/09/20 08:58:13;;;;;;;;;0.20;0.20;25.80;99.90;;;;;;4972799;28;9954;-61
2022/09/20 09:00:49;;;;;;;;;2.00;2.00;25.80;99.90;;;;;;4976639;28;9664;-62
2022/09/20 09:03:24;;;;;;;;;0.00;0.00;25.80;99.90;;;;;;4970148;28;9764;-64
2022/09/20 09:05:57;;;;;;;;;2.00;2.00;25.80;99.90;;;;;;4969703;28;8869;-64
2022/09/20 09:08:37;;;;;;;;;1.00;1.00;25.80;99.90;;;;;;4975867;28;9025;-62
2022/09/20 09:11:14;;;;;;;;;2.00;2.00;25.80;99.90;;;;;;4974849;28;8859;-61
2022/09/20 09:13:53;;;;;;;;;2.00;2.00;25.80;99.90;;;;;;4974723;28;8877;-61
2022/09/20 09:16:30;;;;;;;;;1.00;1.00;25.70;99.90;;;;;;4980015;28;8864;-61
2022/09/20 09:19:27;;;;;;;;;1.00;1.00;25.80;99.90;;;;;;4987474;28;8855;-61
2022/09/20 09:22:04;;;;;;;;;0.80;0.80;25.70;99.90;;;;;;4989666;28;8835;-62
2022/09/20 09:24:37;;;;;;;;;0.00;0.00;25.70;99.90;;;;;;4977632;28;8858;-64
2022/09/20 09:27:20;;;;;;;;;1.00;1.00;25.70;99.90;;;;;;4976199;28;8996;-64
2022/09/20 09:29:54;;;;;;;;;2.00;2.00;25.70;99.90;;;;;;4979668;28;8894;-62
2022/09/20 09:32:36;;;;;;;;;1.00;1.00;25.60;99.90;;;;;;4980043;28;8854;-61
2022/09/20 09:35:29;;;;;;;;;1.00;1.00;25.50;99.90;;;;;;4971721;28;8855;-62
2022/09/20 09:38:02;;;;;;;;;1.00;1.00;25.60;99.90;;;;;;4977210;28;8860;-62
2022/09/20 09:40:36;;;;;;;;;1.60;1.60;25.50;99.90;;;;;;4975010;28;8966;-61
2022/09/20 09:43:22;;;;;;;;;1.00;1.00;25.40;99.90;;;;;;4974669;28;8921;-64
2022/09/20 09:45:54;;;;;;;;;1.60;1.00;25.50;99.90;;;;;;4979879;28;8845;-64
2022/09/20 09:48:30;;;;;;;;;1.00;1.00;25.40;99.90;;;;;;4974678;28;9609;-64
2022/09/20 09:51:14;;;;;;;;;1.00;1.00;25.40;99.90;;;;;;4975812;28;8875;-64
2022/09/20 09:53:50;;;;;;;;;1.40;1.40;25.40;99.90;;;;;;4977710;28;8854;-61
2022/09/20 09:56:46;;;;;;;;;1.00;1.00;25.30;99.90;;;;;;4984118;28;8874;-61
2022/09/20 09:59:43;;;;;;;;;1.00;1.00;25.30;99.90;;;;;;4991468;28;8989;-61
2022/09/20 10:02:49;;;;;;;;;1.80;1.80;25.30;99.90;;;;;;4972434;28;8878;-62
2022/09/20 10:05:57;;;;;;;;;0.60;0.60;25.30;99.90;;;;;;4983735;28;8994;-64
2022/09/20 10:09:02;;;;;;;;;1.00;1.00;25.40;99.90;;;;;;4979554;28;8850;-61
2022/09/20 10:11:43;;;;;;;;;1.00;1.00;25.40;99.90;;;;;;4976811;28;8846;-62
2022/09/20 10:14:19;;;;;;;;;1.60;1.60;25.30;99.90;;;;;;4971540;28;8853;-63
2022/09/20 10:17:39;;;;;;;;;1.00;1.00;25.30;99.90;;;;;;4976304;28;8938;-64
2022/09/20 10:20:14;;;;;;;;;1.00;1.00;25.30;99.90;;;;;;4980634;28;9709;-64
2022/09/20 10:22:48;;;;;;;;;1.00;1.00;25.20;99.90;;;;;;4959152;28;9858;-61
2022/09/20 10:26:24;;;;;;;;;1.00;1.00;25.10;99.90;;;;;;4974319;28;8891;-62
2022/09/20 10:29:22;;;;;;;;;2.00;2.00;25.10;99.90;;;;;;4960249;28;8907;-64
2022/09/20 10:32:15;;;;;;;;;1.00;1.00;25.20;99.90;;;;;;4969326;28;9506;-64
2022/09/20 10:35:03;;;;;;;;;1.00;1.00;25.10;99.90;;;;;;4990930;28;8935;-64
2022/09/20 10:37:59;;;;;;;;;1.40;1.40;25.20;99.90;;;;;;4984473;28;8862;-64
2022/09/20 10:43:47;;;;;;;;;1.00;1.00;25.10;99.90;;;;;;4981278;28;8874;-63
2022/09/20 10:46:35;;;;;;;;;1.00;1.00;25.10;99.90;;;;;;4979088;28;8858;-63
2022/09/20 10:49:32;;;;;;;;;1.00;1.00;25.10;99.90;;;;;;4980510;28;8857;-61
2022/09/20 10:52:22;;;;;;;;;1.00;1.00;25.10;99.90;;;;;;4985311;28;8874;-62
2022/09/20 10:55:20;;;;;;;;;1.80;1.80;25.10;99.90;;;;;;4976216;28;8874;-64
2022/09/20 10:58:29;;;;;;;;;1.00;1.00;25.00;99.90;;;;;;4976666;28;8839;-64
2022/09/20 11:01:00;;;;;;;;;1.00;1.00;25.00;99.90;;;;;;4987161;28;8858;-64
2022/09/20 11:03:55;;;;;;;;;1.00;1.00;25.00;99.90;;;;;;4973214;28;8869;-61
2022/09/20 11:07:13;;;;;;;;;1.00;1.00;25.00;99.90;;;;;;4974406;28;8861;-60
2022/09/20 11:09:57;;;;;;;;;0.40;0.40;24.90;99.90;;;;;;4981115;28;9591;-61
2022/09/20 11:12:38;;;;;;;;;1.00;1.00;24.90;99.90;;;;;;4979847;28;8835;-61
2022/09/20 11:15:54;;;;;;;;;1.00;1.00;24.90;99.90;;;;;;4979374;28;8837;-61
2022/09/20 11:18:39;;;;;;;;;1.00;1.00;24.80;99.90;;;;;;4980929;28;8852;-63
2022/09/20 11:21:21;;;;;;;;;1.00;1.00;24.90;99.90;;;;;;4980402;28;8857;-63
2022/09/20 11:24:02;;;;;;;;;1.00;1.00;24.90;99.90;;;;;;4976331;28;8909;-61
2022/09/20 11:26:52;;;;;;;;;1.20;1.20;24.90;99.90;;;;;;4980817;28;8822;-61
2022/09/20 11:29:44;;;;;;;;;1.00;1.00;24.90;99.90;;;;;;4973058;28;8862;-64
2022/09/20 11:32:51;;;;;;;;;1.00;1.00;24.90;99.90;;;;;;4975445;28;8904;-63
2022/09/20 11:35:25;;;;;;;;;1.60;1.60;24.80;99.90;;;;;;4979392;28;8843;-64
2022/09/20 11:38:42;;;;;;;;;1.00;1.00;24.80;99.90;;;;;;4978201;28;8869;-62
2022/09/20 11:41:31;;;;;;;;;1.00;1.00;24.80;99.90;;;;;;4978954;28;8870;-63
2022/09/20 11:44:16;;;;;;;;;1.00;1.00;24.80;99.90;;;;;;4975375;28;8836;-64
2022/09/20 11:46:58;;;;;;;;;1.00;1.00;24.60;99.90;;;;;;4970562;28;9462;-64
2022/09/20 11:50:06;;;;;;;;;1.20;1.20;24.60;99.90;;;;;;4977689;28;8867;-64
2022/09/20 11:52:40;;;;;;;;;1.00;1.00;24.70;99.90;;;;;;4977238;28;8838;-64
2022/09/20 11:55:31;;;;;;;;;0.20;0.20;24.60;99.90;;;;;;4977728;28;8866;-60
2022/09/20 11:58:28;;;;;;;;;2.00;1.00;24.60;99.90;;;;;;4986801;28;8850;-60
2022/09/20 12:00:59;;;;;;;;;1.00;1.00;24.50;99.90;;;;;;4975816;28;8845;-60
2022/09/20 12:03:38;;;;;;;;;1.20;1.20;24.60;99.90;;;;;;4978421;28;8863;-64
2022/09/20 12:06:21;;;;;;;;;1.00;1.00;24.60;99.90;;;;;;4976448;28;8857;-63
2022/09/20 12:08:52;;;;;;;;;1.00;1.00;24.50;99.90;;;;;;4974765;28;8895;-64
2022/09/20 12:11:37;;;;;;;;;1.20;0.60;24.50;99.90;;;;;;4985763;28;9608;-64
2022/09/20 12:14:20;;;;;;;;;1.00;1.00;24.50;99.90;;;;;;4971780;28;9563;-62
2022/09/20 12:16:51;;;;;;;;;2.00;2.00;24.50;99.90;;;;;;4977711;28;8874;-62
2022/09/20 12:19:32;;;;;;;;;1.40;1.40;24.50;99.90;;;;;;4970321;28;8893;-59
2022/09/20 12:22:04;;;;;;;;;2.00;2.00;24.50;99.90;;;;;;4972131;28;8884;-61
2022/09/20 12:24:38;;;;;;;;;1.80;1.80;24.50;99.90;;;;;;4975128;28;8874;-62
2022/09/20 12:27:30;;;;;;;;;2.00;2.00;24.50;99.90;;;;;;4968107;28;9974;-62
2022/09/20 12:30:21;;;;;;;;;1.00;1.00;24.50;99.90;;;;;;4967907;28;8904;-62
2022/09/20 12:32:56;;;;;;;;;1.00;1.00;24.50;99.90;;;;;;4973746;28;9638;-63
2022/09/20 12:35:44;;;;;;;;;2.00;2.00;24.50;99.90;;;;;;4974978;28;8849;-64
2022/09/20 12:38:21;;;;;;;;;1.00;1.00;24.50;99.90;;;;;;4994861;28;8982;-64
2022/09/20 12:41:10;;;;;;;;;1.80;1.80;24.50;99.90;;;;;;4976544;28;8863;-65
2022/09/20 12:43:56;;;;;;;;;1.00;1.00;24.60;99.90;;;;;;4977135;28;8854;-67
2022/09/20 12:46:42;;;;;;;;;0.80;0.80;24.60;99.90;;;;;;4980519;28;8877;-65
2022/09/20 12:52:49;;;;;;;;;1.00;1.00;24.70;99.90;;;;;;4977677;28;9607;-65
2022/09/20 12:55:42;;;;;;;;;2.00;2.00;24.80;99.90;;;;;;4978361;28;8904;-65
2022/09/20 12:58:13;;;;;;;;;1.00;1.00;24.80;99.90;;;;;;4978120;28;8839;-63
2022/09/20 13:00:46;;;;;;;;;2.00;0.00;24.80;99.90;;;;;;4979547;28;8885;-64
2022/09/20 13:03:26;;;;;;;;;0.80;0.80;24.90;99.90;;;;;;4974200;28;8891;-63
2022/09/20 13:09:00;;;;;;;;;0.80;0.80;25.00;99.90;;;;;;4976562;28;8839;-63
2022/09/20 13:11:56;;;;;;;;;1.80;1.00;25.10;99.90;;;;;;4977193;28;8863;-63
2022/09/20 13:14:41;;;;;;;;;1.00;1.00;25.10;99.90;;;;;;4989339;28;8866;-64
2022/09/20 13:17:31;;;;;;;;;1.00;1.00;25.20;99.90;;;;;;4979250;28;9656;-64
2022/09/20 13:20:03;;;;;;;;;1.00;1.00;25.30;99.90;;;;;;4975637;28;9538;-64
2022/09/20 13:22:42;;;;;;;;;2.00;1.00;25.40;99.90;;;;;;4976906;28;8901;-62
2022/09/20 13:25:15;;;;;;;;;1.00;1.00;25.40;99.90;;;;;;4978115;28;8866;-64
2022/09/20 13:28:27;;;;;;;;;1.00;1.00;25.40;99.90;;;;;;4975179;28;8842;-63
2022/09/20 13:31:21;;;;;;;;;1.00;1.00;25.50;99.90;;;;;;4977425;28;8845;-66
2022/09/20 13:33:55;;;;;;;;;1.00;1.00;25.60;99.90;;;;;;4975189;28;8861;-65
2022/09/20 13:36:28;;;;;;;;;1.00;1.00;25.60;99.90;;;;;;4974981;28;8854;-62
2022/09/20 13:39:01;;;;;;;;;1.00;1.00;25.60;99.90;;;;;;4989255;28;8839;-61
2022/09/20 13:41:35;;;;;;;;;0.00;0.00;25.70;99.90;;;;;;4976058;28;8908;-62
2022/09/20 13:44:06;;;;;;;;;1.60;1.00;25.70;99.90;;;;;;4973322;28;9577;-61
2022/09/20 13:46:44;;;;;;;;;0.00;0.00;25.80;99.90;;;;;;4971813;28;8866;-61
2022/09/20 13:49:22;;;;;;;;;1.00;1.00;25.90;99.90;;;;;;4977212;28;8881;-62
2022/09/20 13:52:25;;;;;;;;;1.00;1.00;25.90;99.90;;;;;;4973726;28;8842;-61
2022/09/20 13:55:01;;;;;;;;;2.00;2.00;25.90;99.90;;;;;;4973141;28;8904;-61
2022/09/20 13:57:32;;;;;;;;;0.60;0.60;26.00;99.90;;;;;;4979704;28;8858;-61
2022/09/20 14:00:13;;;;;;;;;1.20;1.20;26.10;99.90;;;;;;4977868;28;8878;-61
2022/09/20 14:02:45;;;;;;;;;1.00;1.00;26.20;99.90;;;;;;4975307;28;8885;-61
2022/09/20 14:05:22;;;;;;;;;1.00;1.00;26.20;99.90;;;;;;4977328;28;8830;-61
2022/09/20 14:07:54;;;;;;;;;1.00;1.00;26.30;99.90;;;;;;4970801;28;8886;-62
2022/09/20 14:11:02;;;;;;;;;0.20;0.20;26.30;99.90;;;;;;4976802;28;8835;-62
2022/09/20 14:13:39;;;;;;;;;1.00;1.00;26.40;99.90;;;;;;4972987;28;8847;-63
2022/09/20 14:16:11;;;;;;;;;1.00;1.00;26.50;99.90;;;;;;4974262;28;8877;-62
2022/09/20 14:18:47;;;;;;;;;1.00;1.00;26.50;99.90;;;;;;4968671;28;8877;-61
2022/09/20 14:21:30;;;;;;;;;1.00;1.00;26.50;99.90;;;;;;4977772;28;8862;-61
2022/09/20 14:24:27;;;;;;;;;2.00;2.00;26.50;99.90;;;;;;4974974;28;8883;-62
2022/09/20 14:27:21;;;;;;;;;1.00;1.00;26.60;99.90;;;;;;4975475;28;8867;-61
2022/09/20 14:29:55;;;;;;;;;1.00;1.00;26.70;99.90;;;;;;4971880;28;8853;-61
2022/09/20 14:32:37;;;;;;;;;1.00;1.00;26.70;99.90;;;;;;4975200;28;8901;-61
2022/09/20 14:35:20;;;;;;;;;1.00;1.00;26.80;99.90;;;;;;4975596;28;8889;-61
2022/09/20 14:37:57;;;;;;;;;1.00;1.00;26.80;99.90;;;;;;4989966;28;8893;-61
2022/09/20 14:40:31;;;;;;;;;1.00;1.00;26.90;99.90;;;;;;4973473;28;8871;-62
2022/09/20 14:43:05;;;;;;;;;1.00;1.00;26.90;99.90;;;;;;4971619;28;8861;-61